CheckWX is a tool to help pilots better visualize weather data.  It is not intended as a substitute for an official pre-flight weather briefing.

05:12:07 UTC

KPTT METAR
Pratt Regional Airport
Pratt, Kansas, USA
Current

17 mins ago

KPTT 240455Z AUTO 31015G20KT 10SM CLR M01/M05 A3009 RMK AO2 T10071055
Observed
Feb-24 @ 04:55 UTC
Wind
  • 310° at 15 KTS
  • Gusting to 20 KTS
Visibility
10 SM
Flight Rules
VFR
Cloud Levels
  • Clear skies
Temperature
-1°C / 30°F
Dewpoint
-6°C / 21°F
Humidity
69%
Altimeter
30.09" Hg
Pressure
1018.92 hPa
Previous

37 mins ago

KPTT 240435Z AUTO 31018G24KT 10SM CLR M01/M05 A3008 RMK AO2 T10061053
Observed
Feb-24 @ 04:35 UTC
Wind
  • 310° at 18 KTS
  • Gusting to 24 KTS
Visibility
10 SM
Flight Rules
VFR
Cloud Levels
  • Clear skies
Temperature
-1°C / 30°F
Dewpoint
-5°C / 23°F
Humidity
75%
Altimeter
30.08" Hg
Pressure
1018.62 hPa
Previous

57 mins ago

KPTT 240415Z AUTO 31019G22KT 10SM CLR M01/M05 A3005 RMK AO2 T10071046
Observed
Feb-24 @ 04:15 UTC
Wind
  • 310° at 19 KTS
  • Gusting to 22 KTS
Visibility
10 SM
Flight Rules
VFR
Cloud Levels
  • Clear skies
Temperature
-1°C / 30°F
Dewpoint
-5°C / 23°F
Humidity
75%
Altimeter
30.05" Hg
Pressure
1017.62 hPa